G.commander — DSQR5 — position and weather

sailwx.info

Track history (hours):
 
Tides and Currents Weather Stations Pressure Air Temp Water Temp Dewpoint Dewpoint Depression Visibility Wind Speed Wind Dir Waves Ship Positions

G.commander

Last reported at 2016-Feb-04 20:29 UTC. Time now 2016-May-31 21:54 UTC.
Position N 02°02' E 102°11'.
Warning: this ship's position is months out of date.

Length 230 m; draft 8.3 m.

Type: Tanker. MMSI: 441681000.

Date/timePositionNaut miles runAvg speedWind from/ knotsBaromVisibWave heightAir tempDewpointWater temp
2016-Feb-04 20:29N 02°02' E 102°11'1616.7
2016-Feb-04 19:33N 01°53' E 102°24'1817.4
2016-Feb-04 18:32N 01°46' E 102°40'6817.0
2016-Feb-04 14:31N 01°11' E 103°39'4 0.9
2016-Feb-04 10:19N 01°11' E 103°42'0 0.0
2016-Feb-04 08:25N 01°11' E 103°42'0 0.1
2016-Feb-04 05:29N 01°11' E 103°43'3 2.6
2016-Feb-04 04:26N 01°09' E 103°45'5 5.8
2016-Feb-04 03:33N 01°11' E 103°50'7 7.3
2016-Feb-04 02:33N 01°14' E 103°56'8 7.9
2016-Feb-04 01:33N 01°16' E 104°04'  
2016-Jan-29 09:09N 31°16' E 121°51'811.6
2016-Jan-29 08:28N 31°19' E 121°43'6 6.6
2016-Jan-29 07:32N 31°22' E 121°36'5 5.3
2016-Jan-29 06:34N 31°25' E 121°31'6 6.4
2016-Jan-29 05:33N 31°29' E 121°26'1110.7
2016-Jan-29 04:33N 31°37' E 121°17'1211.6
2016-Jan-29 03:33N 31°44' E 121°06'1110.8
2016-Jan-29 02:34N 31°49' E 120°55'1311.7
2016-Jan-29 01:26N 32°00' E 120°48'1111.8
2016-Jan-29 00:31N 32°00' E 120°35'6 6.4
2016-Jan-28 23:31N 32°00' E 120°27'  
2016-Jan-26 09:09N 32°00' E 120°27'2 2.9
2016-Jan-26 08:33N 32°02' E 120°27'6 5.8
2016-Jan-26 07:31N 32°01' E 120°34'1211.5
2016-Jan-26 06:28N 32°01' E 120°48'1314.0
2016-Jan-26 05:32N 31°49' E 120°55'1413.9
2016-Jan-26 04:33N 31°42' E 121°09'1414.2
2016-Jan-26 03:33N 31°32' E 121°21'1111.2
2016-Jan-26 02:33N 31°25' E 121°31'1211.4
2016-Jan-26 01:30N 31°19' E 121°43'1212.2
2016-Jan-26 00:33N 31°15' E 121°56'1010.4
2016-Jan-25 23:33N 31°13' E 122°08'  
Track history (hours):
 
Tides and Currents Weather Stations Pressure Air Temp Water Temp Dewpoint Dewpoint Depression Visibility Wind Speed Wind Dir Waves Ship Positions

G.commander

Last reported at 2016-Feb-04 20:29 UTC. Time now 2016-May-31 21:54 UTC.
Position N 02°02' E 102°11'.
Warning: this ship's position is months out of date.

Length 230 m; draft 8.3 m.

Type: Tanker. MMSI: 441681000.

Date/timePositionNaut miles runAvg speedWind from/ knotsBaromVisibWave heightAir tempDewpointWater temp
2016-Feb-04 20:29N 02°02' E 102°11'1616.7
2016-Feb-04 19:33N 01°53' E 102°24'1817.4
2016-Feb-04 18:32N 01°46' E 102°40'6817.0
2016-Feb-04 14:31N 01°11' E 103°39'4 0.9
2016-Feb-04 10:19N 01°11' E 103°42'0 0.0
2016-Feb-04 08:25N 01°11' E 103°42'0 0.1
2016-Feb-04 05:29N 01°11' E 103°43'3 2.6
2016-Feb-04 04:26N 01°09' E 103°45'5 5.8
2016-Feb-04 03:33N 01°11' E 103°50'7 7.3
2016-Feb-04 02:33N 01°14' E 103°56'8 7.9
2016-Feb-04 01:33N 01°16' E 104°04'  
2016-Jan-29 09:09N 31°16' E 121°51'811.6
2016-Jan-29 08:28N 31°19' E 121°43'6 6.6
2016-Jan-29 07:32N 31°22' E 121°36'5 5.3
2016-Jan-29 06:34N 31°25' E 121°31'6 6.4
2016-Jan-29 05:33N 31°29' E 121°26'1110.7
2016-Jan-29 04:33N 31°37' E 121°17'1211.6
2016-Jan-29 03:33N 31°44' E 121°06'1110.8
2016-Jan-29 02:34N 31°49' E 120°55'1311.7
2016-Jan-29 01:26N 32°00' E 120°48'1111.8
2016-Jan-29 00:31N 32°00' E 120°35'6 6.4
2016-Jan-28 23:31N 32°00' E 120°27'  
2016-Jan-26 09:09N 32°00' E 120°27'2 2.9
2016-Jan-26 08:33N 32°02' E 120°27'6 5.8
2016-Jan-26 07:31N 32°01' E 120°34'1211.5
2016-Jan-26 06:28N 32°01' E 120°48'1314.0
2016-Jan-26 05:32N 31°49' E 120°55'1413.9
2016-Jan-26 04:33N 31°42' E 121°09'1414.2
2016-Jan-26 03:33N 31°32' E 121°21'1111.2
2016-Jan-26 02:33N 31°25' E 121°31'1211.4
2016-Jan-26 01:30N 31°19' E 121°43'1212.2
2016-Jan-26 00:33N 31°15' E 121°56'1010.4
2016-Jan-25 23:33N 31°13' E 122°08'  

Dump ship's entire track history